createdAt,value
2018-11-22T12:19:06.514Z,8.50
2018-11-22T12:24:09.733Z,8.30
2018-11-22T12:29:13.299Z,8.50
2018-11-22T12:34:20.429Z,8.40
2018-11-22T12:39:23.687Z,8.60
2018-11-22T12:44:26.909Z,8.30
2018-11-22T12:49:30.152Z,8.60
2018-11-22T12:54:33.389Z,8.40
2018-11-22T12:59:36.628Z,8.30
2018-11-22T13:04:39.858Z,8.70
2018-11-22T13:09:43.105Z,8.60
2018-11-22T13:14:46.313Z,8.40
2018-11-22T13:19:49.532Z,8.60
2018-11-22T13:24:52.753Z,8.80
2018-11-22T13:29:55.993Z,8.60
2018-11-22T13:34:59.223Z,8.70
2018-11-22T13:40:02.437Z,8.60
2018-11-22T13:45:09.485Z,8.60
2018-11-22T13:50:16.116Z,8.70
2018-11-22T13:55:19.333Z,8.70
2018-11-22T14:00:23.813Z,8.70
2018-11-22T14:05:27.068Z,8.60
2018-11-22T14:10:30.293Z,8.60
2018-11-22T14:15:33.520Z,8.70
2018-11-22T14:20:37.150Z,8.60
2018-11-22T14:25:40.349Z,8.70
2018-11-22T14:30:43.552Z,8.90
2018-11-22T14:35:46.833Z,8.70
2018-11-22T14:40:50.061Z,8.60
2018-11-22T14:45:53.269Z,8.50
2018-11-22T14:51:01.127Z,8.60
2018-11-22T14:56:05.235Z,8.50
2018-11-22T15:01:07.753Z,8.70
2018-11-22T15:06:10.976Z,8.60
2018-11-22T15:11:14.198Z,8.60
2018-11-22T15:16:17.412Z,8.60
2018-11-22T15:21:20.652Z,8.70
2018-11-22T15:26:23.908Z,8.50
2018-11-22T15:31:27.185Z,8.80
2018-11-22T15:36:30.405Z,8.70
2018-11-22T15:41:33.625Z,8.70
2018-11-22T15:46:36.866Z,8.70
2018-11-22T15:51:40.085Z,8.80
2018-11-22T15:56:43.309Z,8.50
2018-11-22T16:01:46.543Z,8.60
2018-11-22T16:06:49.761Z,8.70
2018-11-22T16:11:52.993Z,8.50
2018-11-22T16:16:56.253Z,8.70
2018-11-22T16:21:59.485Z,8.80
2018-11-22T16:27:03.008Z,8.70
2018-11-22T16:32:06.222Z,8.80
2018-11-22T16:37:09.461Z,8.60
2018-11-22T16:42:12.721Z,8.60
2018-11-22T16:47:15.973Z,8.70
2018-11-22T16:52:19.208Z,8.60
2018-11-22T16:57:22.412Z,8.30
2018-11-22T17:02:25.659Z,8.70
2018-11-22T17:07:28.876Z,8.70
2018-11-22T17:12:32.103Z,8.80
2018-11-22T17:17:35.348Z,8.50
2018-11-22T17:22:40.153Z,9.90
2018-11-22T17:27:44.120Z,9.00
2018-11-22T17:32:47.365Z,9.00
2018-11-22T17:37:51.109Z,8.60
2018-11-22T17:42:54.396Z,8.90
2018-11-22T17:47:57.748Z,8.60
2018-11-22T17:53:01.369Z,8.90
2018-11-22T17:58:04.906Z,8.60
2018-11-22T18:03:08.447Z,8.70
2018-11-22T18:08:11.757Z,8.70
2018-11-22T18:13:15.117Z,8.40
2018-11-22T18:18:18.396Z,8.60
2018-11-22T18:23:21.673Z,8.50
2018-11-22T18:28:24.919Z,8.30
2018-11-22T18:33:28.236Z,8.40
2018-11-22T18:38:31.501Z,8.40
2018-11-22T18:43:35.400Z,8.30
2018-11-22T18:48:38.021Z,8.40
2018-11-22T18:53:41.294Z,8.40
2018-11-22T18:58:44.532Z,8.30
2018-11-22T19:03:47.786Z,8.40
2018-11-22T19:08:51.020Z,8.40
2018-11-22T19:13:54.269Z,8.30
2018-11-22T19:18:57.770Z,8.40
2018-11-22T19:24:01.214Z,8.30
2018-11-22T19:29:04.645Z,8.30
2018-11-22T19:34:08.081Z,8.40
2018-11-22T19:39:11.321Z,8.20
2018-11-22T19:44:14.561Z,8.40
2018-11-22T19:49:17.795Z,8.40
2018-11-22T19:54:21.047Z,8.40
2018-11-22T19:59:24.323Z,8.30
2018-11-22T20:04:27.547Z,8.30
2018-11-22T20:09:30.817Z,8.60
2018-11-22T20:14:34.081Z,8.50
2018-11-22T20:19:37.533Z,8.30
2018-11-22T20:24:40.873Z,8.40
2018-11-22T20:29:44.153Z,8.20
2018-11-22T20:34:47.461Z,8.40
2018-11-22T20:39:50.961Z,8.30
2018-11-22T20:44:54.294Z,8.40
2018-11-22T20:49:57.545Z,8.40
2018-11-22T20:55:00.832Z,8.50
2018-11-22T21:00:05.591Z,8.30
2018-11-22T21:05:09.892Z,8.40
2018-11-22T21:10:16.390Z,8.40
2018-11-22T21:15:22.628Z,8.40
2018-11-22T21:20:27.518Z,8.40
2018-11-22T21:25:30.788Z,8.30
2018-11-22T21:30:35.384Z,8.20
2018-11-22T21:35:38.652Z,8.30
2018-11-22T21:40:41.949Z,8.40
2018-11-22T21:45:45.375Z,8.50
2018-11-22T21:50:48.592Z,8.30
2018-11-22T21:55:51.818Z,8.50
2018-11-22T22:00:55.046Z,8.40
2018-11-22T22:05:58.289Z,8.30
2018-11-22T22:11:01.522Z,8.40
2018-11-22T22:16:04.879Z,8.60
2018-11-22T22:21:08.131Z,8.40
2018-11-22T22:26:11.365Z,8.30
2018-11-22T22:31:14.609Z,8.20
2018-11-22T22:36:17.833Z,8.40
2018-11-22T22:41:21.077Z,8.30
2018-11-22T22:46:24.345Z,8.10
2018-11-22T22:51:27.596Z,8.10
2018-11-22T22:56:30.837Z,8.10
2018-11-22T23:01:34.081Z,8.10
2018-11-22T23:06:37.341Z,8.10
2018-11-22T23:11:40.565Z,8.10
2018-11-22T23:16:43.782Z,8.00
2018-11-22T23:26:56.553Z,8.00
2018-11-22T23:31:59.793Z,8.10
2018-11-22T23:37:03.037Z,8.00
2018-11-22T23:42:06.261Z,8.10
2018-11-22T23:47:09.482Z,8.00
2018-11-22T23:52:12.784Z,8.10
2018-11-22T23:57:16.021Z,8.10
